Flight Track Log - Related Links

Times and Time Zones

All times are in EDT time to prevent confusion due to time zone crossing. See the GJS3706 flight status page for this flight to view local times or setup timezone preferences in your user account.

Time Position Orientation Groundspeed Altitude Reporting Facility
EDT Latitude Longitude Course Direction KTS MPH feet Rate Location/Type
Mon 09:46:04 PM 36.1572 -95.9356 232° Southwest 219 252 4,000  Level Kansas City Center
Mon 09:47:15 PM 36.2000 -96.0186 303° West 249 287 6,600 2,481 Climbing Kansas City Center
Mon 09:48:17 PM 36.2503 -96.0978 308° West 277 319 9,500 2,129 Climbing Kansas City Center
Mon 09:49:19 PM 36.2994 -96.1889 304° West 317 365 11,000 1,415 Climbing Kansas City Center
Mon 09:50:20 PM 36.3494 -96.2953 300° West 348 400 12,400 1,561 Climbing Kansas City Center
Mon 09:51:22 PM 36.3953 -96.4181 295° West 374 430 14,200 1,790 Climbing Kansas City Center
Mon 09:52:24 PM 36.4425 -96.5433 295° West 388 447 16,100 1,805 Climbing Kansas City Center
Mon 09:53:25 PM 36.4925 -96.6689 296° West 398 458 17,900 2,146 Climbing Kansas City Center
Mon 09:54:27 PM 36.5486 -96.8167 295° West 401 461 20,500 2,098 Climbing Kansas City Center
Mon 09:55:28 PM 36.5944 -96.9411 295° West 392 451 22,200 1,317 Climbing Kansas City Center
Mon 09:56:30 PM 36.6422 -97.0678 295° West 399 459 23,200 968 Climbing Kansas City Center
Mon 09:57:32 PM 36.6886 -97.1933 295° West 408 470 24,200 1,024 Climbing Kansas City Center
Mon 09:58:33 PM 36.7383 -97.3275 295° West 420 483 25,300 1,024 Climbing Kansas City Center
Mon 09:59:35 PM 36.7903 -97.4733 294° West 430 495 26,300 927 Climbing Kansas City Center
Mon 10:00:36 PM 36.8417 -97.6131 295° West 437 503 27,200 878 Climbing Kansas City Center
Mon 10:01:38 PM 36.8933 -97.7558 294° West 445 512 28,100 878 Climbing Kansas City Center
Mon 10:02:39 PM 36.9453 -97.9003 294° West 451 519 29,000 927 Climbing Kansas City Center
Mon 10:03:41 PM 36.9981 -98.0464 294° West 457 526 30,000 1,073 Climbing Kansas City Center
Mon 10:04:42 PM 37.0600 -98.2194 294° West 454 522 31,200 976 Climbing Kansas City Center
Mon 10:05:44 PM 37.1125 -98.3664 294° West 456 525 32,000 390 Climbing Kansas City Center
Mon 10:06:45 PM 37.1653 -98.5161 294° West 462 532 32,000  Level Kansas City Center
Mon 10:07:47 PM 37.2186 -98.6675 294° West 468 539 32,000 537 Level Kansas City Center
Mon 10:08:48 PM 37.2511 -98.8258 285° West 465 535 33,100 1,171 Climbing Kansas City Center
Mon 10:09:50 PM 37.2814 -98.9800 284° West 460 529 34,400 1,366 Climbing Kansas City Center
Mon 10:10:51 PM 37.3119 -99.1450 283° West 448 516 35,900 1,268 Climbing Kansas City Center
Mon 10:11:53 PM 37.3353 -99.2778 283° West 436 502 37,000 976 Climbing Kansas City Center
Mon 10:12:54 PM 37.3636 -99.4239 284° West 432 497 37,900 488 Climbing Kansas City Center
Mon 10:13:56 PM 37.3958 -99.5906 284° West 431 496 38,000 49 Climbing Kansas City Center
Mon 10:14:57 PM 37.4217 -99.7369 283° West 443 510 38,000  Level Kansas City Center
Mon 10:15:59 PM 37.4533 -99.9075 283° West 448 516 38,000  Level Kansas City Center
Mon 10:17:01 PM 37.4794 -100.0544 283° West 449 517 38,000  Level Kansas City Center
Mon 10:18:02 PM 37.5111 -100.2267 283° West 451 519 38,000  Level Kansas City Center
Mon 10:19:03 PM 37.5508 -100.3658 290° West 446 513 38,000  Level Kansas City Center
Mon 10:20:05 PM 37.6111 -100.5092 298° West 442 509 38,000  Level Kansas City Center
Mon 10:21:06 PM 37.6786 -100.6350 304° West 433 498 38,000  Level Kansas City Center
Mon 10:22:08 PM 37.7594 -100.7503 312° West 435 501 38,000  Level Kansas City Center
Mon 10:23:09 PM 37.8392 -100.8794 308° West 438 504 38,000  Level Kansas City Center
Mon 10:24:11 PM 37.9136 -100.9964 309° West 445 512 38,000  Level Kansas City Center
Mon 10:25:12 PM 37.9967 -101.1294 308° West 437 503 38,000  Level Kansas City Center
Mon 10:26:14 PM 38.0667 -101.2406 309° West 427 491 38,000  Level Kansas City Center
Mon 10:27:15 PM 38.1469 -101.3686 309° West 419 482 38,000  Level Kansas City Center
Mon 10:28:03 PM 38.2031 -101.4600 308° West 415 478 38,000  Level Denver Center
Mon 10:29:05 PM 38.2631 -101.5803 302° West 419 482 38,000 -88 Level Denver Center
Mon 10:30:19 PM 38.3431 -101.7406 303° West 421 484 37,800 -533 Descending Denver Center
Mon 10:31:20 PM 38.4042 -101.8633 302° West 428 493 36,800 -1,024 Descending Denver Center
Mon 10:32:22 PM 38.4675 -102.0122 299° West 432 497 35,700 -1,016 Descending Denver Center
Mon 10:33:24 PM 38.4653 -102.1619 269° West 443 510 34,700 -823 Descending Denver Center
Mon 10:34:26 PM 38.4533 -102.3428 265° West 457 526 34,000 -339 Descending Denver Center
Mon 10:35:28 PM 38.4497 -102.5003 268° West 465 535 34,000  Level Denver Center
Mon 10:36:29 PM 38.5061 -102.6706 293° West 471 542 34,000  Level Denver Center
Mon 10:37:31 PM 38.5778 -102.8031 305° West 457 526 34,000  Level Denver Center
Mon 10:38:33 PM 38.6358 -102.9408 298° West 442 509 34,000  Level Denver Center
Mon 10:39:35 PM 38.6897 -103.0781 297° West 434 499 34,000  Level Denver Center
Mon 10:40:36 PM 38.7556 -103.2033 304° West 426 490 34,000  Level Denver Center
Mon 10:41:38 PM 38.8256 -103.3294 305° West 432 497 34,000 -871 Level Denver Center
Mon 10:42:40 PM 38.8956 -103.4531 306° West 429 494 32,200 -2,195 Descending Denver Center
Mon 10:43:41 PM 38.9717 -103.5897 306° West 389 448 29,500 -2,390 Descending Denver Center
Mon 10:44:43 PM 39.0447 -103.6811 316° Northwest 369 425 27,300 -2,129 Descending Denver Center
Mon 10:45:45 PM 39.1097 -103.7781 311° West 359 413 25,100 -2,032 Descending Denver Center
Mon 10:46:47 PM 39.1733 -103.8789 309° West 363 418 23,100 -1,854 Descending Denver Center
Mon 10:47:48 PM 39.2356 -103.9747 310° West 352 405 21,300 -2,049 Descending Denver Center
Mon 10:48:50 PM 39.2956 -104.0647 311° West 334 384 18,900 -1,984 Descending Denver Center
Mon 10:49:52 PM 39.3322 -104.1872 291° West 312 359 17,200 -1,512 Descending Denver Center
Mon 10:50:53 PM 39.3339 -104.2811 271° West 266 306 15,800 -1,512 Descending Denver Center
Mon 10:51:55 PM 39.3356 -104.3778 271° West 271 312 14,100 -1,355 Descending Denver Center
Mon 10:52:57 PM 39.3689 -104.4747 294° West 279 321 13,000 -878 Descending Denver Center
Mon 10:53:58 PM 39.4197 -104.5419 314° West 272 313 12,300 -1,171 Descending Denver Center
Mon 10:55:00 PM 39.4942 -104.5628 348° North 275 316 10,600 -1,597 Descending Denver Center
Mon 10:56:02 PM 39.5631 -104.5842 347° North 224 258 9,000 -780 Descending Denver Center
Mon 10:57:03 PM 39.6147 -104.6039 344° North 197 227 9,000 -683 Level Denver Center
Mon 10:58:05 PM 39.6675 -104.6264 342° North 203 234 7,600 -968 Descending Denver Center
Mon 10:59:07 PM 39.7183 -104.6433 346° North 174 200 7,000 -390 Descending Denver Center
Mon 11:00:08 PM 39.7581 -104.6425 North 146 168 6,800 -488 Descending Denver Center
Mon 11:01:10 PM 39.8000 -104.6422 360° North 140 161 6,000 -683 Descending Denver Center
Mon 11:02:11 PM 39.8386 -104.6414 North 139 160 5,400 -590 Descending Denver Center
Mon 11:04:00 PM 39.8500 -104.6667 333° Northwest  Level FlightAware Approximate
Mon 11:11:00 PM 39.8617 -104.6732 333° Northwest  Level Estimated
Mon 11:12:00 PM 39.8617 -104.6732 333° Northwest  Level Estimated
Mon 11:13:00 PM 39.8617 -104.6732 333° Northwest  Level Estimated

Login

Don't have an account? Register now (free) for customized features, flight alerts, and more!